Pomeranian Bay, Poland
Current Conditions -  °F | °C
As of 2:50 PM on Saturday 25 Oct 2014 (Local Time) from EDAH Reporting Station
Broken Clouds Broken Clouds  
Wind Chill: 36°   Ceiling: 900
Heat Index: 43°   Visibility: 4mi
Dew Point: 37°   Wind: 13mph
Humidity: 81%   Direction: 170°S
Pressure: 30.12"   Gusts: NA
Location:  54.42°N, 14.42°E
Report Text: EDAH 251250Z 17011KT 7000 BKN009 06/03 Q1020
Loading
Personal Weather Stations






























Interactive Weather Map
Tropical Storm Tracking
New forecast layout! Learn more

10-Day Weather Forecast

Advertisements
Track Severe Weather on mobile